Lignite, North Dakota
Current Conditions -  °F | °C
As of 12:00 AM on Saturday 29 Nov 2014 (Local Time) from CYEN Reporting Station
Overcast Overcast  
Wind Chill: 12°   Ceiling: 300
Heat Index: 12°   Visibility: 15mi
Dew Point:   Wind: 2mph
Humidity: 85%   Direction: 250°WSW
Pressure: 29.46"   Gusts: NA
Location:  48.88°N, 102.56°W
Report Text: CYEN 290600Z 25002KT 15SM OVC003 M11/M13 A2946 RMK ST8 SLP020
Loading
Personal Weather Stations






























Interactive Weather Map New forecast layout! Learn more

10-Day Weather Forecast

Advertisements
Track Severe Weather on mobile